sensor_id;sensor_type;location;lat;lon;timestamp;pressure;altitude;pressure_sealevel;temperature;humidity
17260;BME280;8746;49.230;9.220;2023-06-10T00:01:43;99492.53;;;17.01;77.77
17260;BME280;8746;49.230;9.220;2023-06-10T00:04:12;99496.66;;;17.05;77.65
17260;BME280;8746;49.230;9.220;2023-06-10T00:06:37;99494.22;;;17.02;77.01
17260;BME280;8746;49.230;9.220;2023-06-10T00:09:05;99491.28;;;16.93;77.59
17260;BME280;8746;49.230;9.220;2023-06-10T00:11:33;99495.47;;;16.85;77.81
17260;BME280;8746;49.230;9.220;2023-06-10T00:13:59;99495.16;;;16.76;78.86
17260;BME280;8746;49.230;9.220;2023-06-10T00:16:24;99501.91;;;16.69;79.76
17260;BME280;8746;49.230;9.220;2023-06-10T00:18:50;99486.69;;;16.58;80.35
17260;BME280;8746;49.230;9.220;2023-06-10T00:21:16;99495.66;;;16.57;80.83
17260;BME280;8746;49.230;9.220;2023-06-10T00:23:42;99494.19;;;16.53;81.11
17260;BME280;8746;49.230;9.220;2023-06-10T00:26:07;99500.56;;;16.50;80.92
17260;BME280;8746;49.230;9.220;2023-06-10T00:28:32;99495.47;;;16.47;81.00
17260;BME280;8746;49.230;9.220;2023-06-10T00:30:58;99498.81;;;16.38;81.42
17260;BME280;8746;49.230;9.220;2023-06-10T00:33:23;99499.06;;;16.46;80.25
17260;BME280;8746;49.230;9.220;2023-06-10T00:35:48;99497.91;;;16.50;80.53
17260;BME280;8746;49.230;9.220;2023-06-10T00:38:14;99496.28;;;16.61;79.36
17260;BME280;8746;49.230;9.220;2023-06-10T00:40:40;99496.28;;;16.61;78.86
17260;BME280;8746;49.230;9.220;2023-06-10T00:43:06;99497.97;;;16.62;79.13
17260;BME280;8746;49.230;9.220;2023-06-10T00:45:31;99506.81;;;16.62;79.09
17260;BME280;8746;49.230;9.220;2023-06-10T00:47:58;99501.28;;;16.65;78.50
17260;BME280;8746;49.230;9.220;2023-06-10T00:50:23;99504.69;;;16.67;78.37
17260;BME280;8746;49.230;9.220;2023-06-10T00:52:48;99506.47;;;16.67;77.93
17260;BME280;8746;49.230;9.220;2023-06-10T00:55:18;99496.69;;;16.67;78.04
17260;BME280;8746;49.230;9.220;2023-06-10T00:57:45;99500.63;;;16.62;77.87
17260;BME280;8746;49.230;9.220;2023-06-10T01:00:14;99499.44;;;16.66;77.84
17260;BME280;8746;49.230;9.220;2023-06-10T01:02:40;99500.63;;;16.62;78.32
17260;BME280;8746;49.230;9.220;2023-06-10T01:05:07;99515.88;;;16.60;78.30
17260;BME280;8746;49.230;9.220;2023-06-10T01:07:52;99504.38;;;16.59;78.38
17260;BME280;8746;49.230;9.220;2023-06-10T01:10:37;99516.94;;;16.57;78.11
17260;BME280;8746;49.230;9.220;2023-06-10T01:13:09;99517.38;;;16.51;78.09
17260;BME280;8746;49.230;9.220;2023-06-10T01:15:37;99520.16;;;16.49;77.99
17260;BME280;8746;49.230;9.220;2023-06-10T01:18:04;99517.72;;;16.46;78.22
17260;BME280;8746;49.230;9.220;2023-06-10T01:20:34;99515.72;;;16.37;79.04
17260;BME280;8746;49.230;9.220;2023-06-10T01:23:00;99514.97;;;16.35;79.08
17260;BME280;8746;49.230;9.220;2023-06-10T01:25:28;99520.41;;;16.33;78.70
17260;BME280;8746;49.230;9.220;2023-06-10T01:28:03;99515.28;;;16.30;79.19
17260;BME280;8746;49.230;9.220;2023-06-10T01:30:35;99522.56;;;16.28;79.11
17260;BME280;8746;49.230;9.220;2023-06-10T01:33:05;99521.28;;;16.21;79.00
17260;BME280;8746;49.230;9.220;2023-06-10T01:35:33;99522.88;;;16.24;79.31
17260;BME280;8746;49.230;9.220;2023-06-10T01:38:02;99527.88;;;16.28;79.00
17260;BME280;8746;49.230;9.220;2023-06-10T01:40:29;99530.34;;;16.18;78.92
17260;BME280;8746;49.230;9.220;2023-06-10T01:42:54;99530.44;;;16.17;78.85
17260;BME280;8746;49.230;9.220;2023-06-10T01:45:20;99526.19;;;16.14;79.14
17260;BME280;8746;49.230;9.220;2023-06-10T01:47:45;99531.72;;;16.11;79.24
17260;BME280;8746;49.230;9.220;2023-06-10T01:50:11;99534.06;;;16.03;79.38
17260;BME280;8746;49.230;9.220;2023-06-10T01:52:37;99534.50;;;15.97;79.87
17260;BME280;8746;49.230;9.220;2023-06-10T01:55:02;99528.53;;;15.93;80.05
17260;BME280;8746;49.230;9.220;2023-06-10T01:57:28;99529.78;;;15.88;80.34
17260;BME280;8746;49.230;9.220;2023-06-10T01:59:53;99536.63;;;15.92;80.42
17260;BME280;8746;49.230;9.220;2023-06-10T02:02:18;99525.75;;;15.95;79.92
17260;BME280;8746;49.230;9.220;2023-06-10T02:04:44;99532.66;;;15.97;79.94
17260;BME280;8746;49.230;9.220;2023-06-10T02:07:10;99527.03;;;15.89;79.67
17260;BME280;8746;49.230;9.220;2023-06-10T02:09:37;99529.59;;;15.91;79.41
17260;BME280;8746;49.230;9.220;2023-06-10T02:12:03;99535.75;;;15.78;79.81
17260;BME280;8746;49.230;9.220;2023-06-10T02:14:29;99537.13;;;15.71;80.92
17260;BME280;8746;49.230;9.220;2023-06-10T02:16:54;99540.84;;;15.68;81.69
17260;BME280;8746;49.230;9.220;2023-06-10T02:19:21;99538.75;;;15.46;82.55
17260;BME280;8746;49.230;9.220;2023-06-10T02:21:47;99536.84;;;15.48;83.20
17260;BME280;8746;49.230;9.220;2023-06-10T02:24:13;99540.16;;;15.39;84.29
17260;BME280;8746;49.230;9.220;2023-06-10T02:26:38;99540.53;;;15.33;84.91
17260;BME280;8746;49.230;9.220;2023-06-10T02:29:04;99542.03;;;15.37;85.26
17260;BME280;8746;49.230;9.220;2023-06-10T02:31:29;99548.94;;;15.39;84.93
17260;BME280;8746;49.230;9.220;2023-06-10T02:33:54;99550.19;;;15.34;84.41
17260;BME280;8746;49.230;9.220;2023-06-10T02:36:21;99544.59;;;15.38;84.58
17260;BME280;8746;49.230;9.220;2023-06-10T02:38:46;99550.00;;;15.37;84.50
17260;BME280;8746;49.230;9.220;2023-06-10T02:41:12;99553.28;;;15.28;84.21
17260;BME280;8746;49.230;9.220;2023-06-10T02:43:37;99551.38;;;15.30;83.89
17260;BME280;8746;49.230;9.220;2023-06-10T02:46:02;99552.97;;;15.32;84.29
17260;BME280;8746;49.230;9.220;2023-06-10T02:48:28;99558.59;;;15.28;83.78
17260;BME280;8746;49.230;9.220;2023-06-10T02:50:53;99553.50;;;15.25;84.23
17260;BME280;8746;49.230;9.220;2023-06-10T02:53:18;99555.38;;;15.22;83.81
17260;BME280;8746;49.230;9.220;2023-06-10T02:55:44;99556.75;;;15.15;84.11
17260;BME280;8746;49.230;9.220;2023-06-10T02:58:09;99559.03;;;15.07;85.23
17260;BME280;8746;49.230;9.220;2023-06-10T03:00:35;99555.78;;;14.89;86.08
17260;BME280;8746;49.230;9.220;2023-06-10T03:03:02;99550.00;;;14.82;87.50
17260;BME280;8746;49.230;9.220;2023-06-10T03:05:29;99550.88;;;14.83;87.91
17260;BME280;8746;49.230;9.220;2023-06-10T03:07:54;99554.09;;;14.88;87.98
17260;BME280;8746;49.230;9.220;2023-06-10T03:10:20;99554.63;;;14.93;87.62
17260;BME280;8746;49.230;9.220;2023-06-10T03:12:45;99549.97;;;14.97;87.09
17260;BME280;8746;49.230;9.220;2023-06-10T03:15:10;99550.34;;;15.05;86.09
17260;BME280;8746;49.230;9.220;2023-06-10T03:17:36;99550.13;;;15.08;85.90
17260;BME280;8746;49.230;9.220;2023-06-10T03:20:02;99553.44;;;15.12;85.60
17260;BME280;8746;49.230;9.220;2023-06-10T03:22:28;99554.19;;;15.14;85.15
17260;BME280;8746;49.230;9.220;2023-06-10T03:24:53;99564.72;;;15.15;84.95
17260;BME280;8746;49.230;9.220;2023-06-10T03:27:20;99562.16;;;15.14;84.94
17260;BME280;8746;49.230;9.220;2023-06-10T03:29:45;99557.50;;;15.17;84.88
17260;BME280;8746;49.230;9.220;2023-06-10T03:32:11;99564.53;;;15.18;85.24
17260;BME280;8746;49.230;9.220;2023-06-10T03:34:36;99562.03;;;15.02;85.17
17260;BME280;8746;49.230;9.220;2023-06-10T03:37:01;99563.69;;;14.76;88.61
17260;BME280;8746;49.230;9.220;2023-06-10T03:39:28;99573.34;;;14.63;91.10
17260;BME280;8746;49.230;9.220;2023-06-10T03:41:54;99570.97;;;14.58;91.24
17260;BME280;8746;49.230;9.220;2023-06-10T03:44:21;99576.59;;;14.39;92.54
17260;BME280;8746;49.230;9.220;2023-06-10T03:46:46;99580.19;;;14.52;91.82
17260;BME280;8746;49.230;9.220;2023-06-10T03:49:12;99576.00;;;14.48;92.45
17260;BME280;8746;49.230;9.220;2023-06-10T03:51:37;99569.47;;;14.54;91.88
17260;BME280;8746;49.230;9.220;2023-06-10T03:54:03;99578.53;;;14.64;90.18
17260;BME280;8746;49.230;9.220;2023-06-10T03:56:28;99571.28;;;14.68;89.75
17260;BME280;8746;49.230;9.220;2023-06-10T03:58:54;99581.06;;;14.67;89.71
17260;BME280;8746;49.230;9.220;2023-06-10T04:01:20;99582.06;;;14.65;90.68
17260;BME280;8746;49.230;9.220;2023-06-10T04:03:47;99582.75;;;14.68;90.97
17260;BME280;8746;49.230;9.220;2023-06-10T04:06:14;99583.41;;;14.72;91.41
17260;BME280;8746;49.230;9.220;2023-06-10T04:08:39;99583.72;;;14.67;91.01
17260;BME280;8746;49.230;9.220;2023-06-10T04:11:05;99582.38;;;14.74;90.64
17260;BME280;8746;49.230;9.220;2023-06-10T04:13:30;99588.53;;;14.75;91.14
17260;BME280;8746;49.230;9.220;2023-06-10T04:15:56;99585.00;;;14.60;92.75
17260;BME280;8746;49.230;9.220;2023-06-10T04:18:21;99579.63;;;14.76;91.90
17260;BME280;8746;49.230;9.220;2023-06-10T04:20:47;99575.88;;;14.93;91.64
17260;BME280;8746;49.230;9.220;2023-06-10T04:23:12;99571.38;;;15.08;90.28
17260;BME280;8746;49.230;9.220;2023-06-10T04:25:38;99577.59;;;15.21;88.89
17260;BME280;8746;49.230;9.220;2023-06-10T04:28:03;99581.44;;;15.30;88.45
17260;BME280;8746;49.230;9.220;2023-06-10T04:30:28;99587.66;;;15.44;86.99
17260;BME280;8746;49.230;9.220;2023-06-10T04:32:54;99584.28;;;15.54;86.58
17260;BME280;8746;49.230;9.220;2023-06-10T04:35:19;99586.34;;;15.64;85.92
17260;BME280;8746;49.230;9.220;2023-06-10T04:37:44;99587.72;;;15.57;85.85
17260;BME280;8746;49.230;9.220;2023-06-10T04:40:10;99591.44;;;15.67;85.34
17260;BME280;8746;49.230;9.220;2023-06-10T04:42:36;99598.06;;;15.74;85.55
17260;BME280;8746;49.230;9.220;2023-06-10T04:45:02;99595.91;;;15.66;84.62
17260;BME280;8746;49.230;9.220;2023-06-10T04:47:29;99592.31;;;15.80;84.86
17260;BME280;8746;49.230;9.220;2023-06-10T04:49:57;99599.63;;;15.64;85.47
17260;BME280;8746;49.230;9.220;2023-06-10T04:52:23;99592.44;;;15.79;84.99
17260;BME280;8746;49.230;9.220;2023-06-10T04:54:49;99594.41;;;15.90;83.99
17260;BME280;8746;49.230;9.220;2023-06-10T04:57:15;99598.34;;;15.97;83.46
17260;BME280;8746;49.230;9.220;2023-06-10T04:59:40;99607.06;;;15.99;82.94
17260;BME280;8746;49.230;9.220;2023-06-10T05:02:05;99615.19;;;16.10;82.04
17260;BME280;8746;49.230;9.220;2023-06-10T05:04:31;99609.00;;;16.23;82.07
17260;BME280;8746;49.230;9.220;2023-06-10T05:06:56;99619.22;;;16.29;82.05
17260;BME280;8746;49.230;9.220;2023-06-10T05:09:21;99616.88;;;16.24;81.12
17260;BME280;8746;49.230;9.220;2023-06-10T05:11:47;99613.34;;;16.37;80.49
17260;BME280;8746;49.230;9.220;2023-06-10T05:14:12;99609.81;;;16.62;78.60
17260;BME280;8746;49.230;9.220;2023-06-10T05:16:37;99618.78;;;16.61;79.27
17260;BME280;8746;49.230;9.220;2023-06-10T05:19:03;99620.25;;;16.65;77.57
17260;BME280;8746;49.230;9.220;2023-06-10T05:21:29;99610.34;;;16.67;77.88
17260;BME280;8746;49.230;9.220;2023-06-10T05:23:54;99607.22;;;16.86;77.40
17260;BME280;8746;49.230;9.220;2023-06-10T05:26:20;99602.31;;;16.93;77.10
17260;BME280;8746;49.230;9.220;2023-06-10T05:28:45;99619.75;;;17.10;77.23
17260;BME280;8746;49.230;9.220;2023-06-10T05:31:10;99626.59;;;17.14;75.71
17260;BME280;8746;49.230;9.220;2023-06-10T05:33:36;99619.09;;;17.19;75.91
17260;BME280;8746;49.230;9.220;2023-06-10T05:36:01;99614.66;;;17.31;75.24
17260;BME280;8746;49.230;9.220;2023-06-10T05:38:27;99612.00;;;17.31;75.45
17260;BME280;8746;49.230;9.220;2023-06-10T05:40:52;99605.41;;;17.48;74.18
17260;BME280;8746;49.230;9.220;2023-06-10T05:43:17;99616.50;;;17.55;73.69
17260;BME280;8746;49.230;9.220;2023-06-10T05:45:43;99618.97;;;17.69;72.81
17260;BME280;8746;49.230;9.220;2023-06-10T05:48:08;99614.97;;;17.75;72.84
17260;BME280;8746;49.230;9.220;2023-06-10T05:50:34;99619.69;;;17.71;73.14
17260;BME280;8746;49.230;9.220;2023-06-10T05:53:03;99622.31;;;17.84;73.43
17260;BME280;8746;49.230;9.220;2023-06-10T05:55:29;99623.09;;;17.98;73.59
17260;BME280;8746;49.230;9.220;2023-06-10T05:58:01;99630.78;;;18.14;73.34
17260;BME280;8746;49.230;9.220;2023-06-10T06:00:26;99629.69;;;18.27;72.34
17260;BME280;8746;49.230;9.220;2023-06-10T06:02:52;99624.00;;;18.32;71.95
17260;BME280;8746;49.230;9.220;2023-06-10T06:05:18;99626.94;;;18.40;71.31
17260;BME280;8746;49.230;9.220;2023-06-10T06:07:43;99629.22;;;18.34;71.38
17260;BME280;8746;49.230;9.220;2023-06-10T06:10:09;99621.25;;;18.45;71.29
17260;BME280;8746;49.230;9.220;2023-06-10T06:12:34;99617.97;;;18.41;71.34
17260;BME280;8746;49.230;9.220;2023-06-10T06:14:59;99623.31;;;18.41;71.01
17260;BME280;8746;49.230;9.220;2023-06-10T06:17:25;99627.06;;;18.50;70.85
17260;BME280;8746;49.230;9.220;2023-06-10T06:19:50;99621.59;;;18.63;70.80
17260;BME280;8746;49.230;9.220;2023-06-10T06:22:15;99627.66;;;18.65;71.34
17260;BME280;8746;49.230;9.220;2023-06-10T06:24:45;99619.19;;;18.94;69.57
17260;BME280;8746;49.230;9.220;2023-06-10T06:27:10;99619.28;;;18.81;70.04
17260;BME280;8746;49.230;9.220;2023-06-10T06:29:35;99619.44;;;19.02;70.09
17260;BME280;8746;49.230;9.220;2023-06-10T06:32:01;99620.97;;;19.16;69.09
17260;BME280;8746;49.230;9.220;2023-06-10T06:34:26;99622.03;;;19.25;68.64
17260;BME280;8746;49.230;9.220;2023-06-10T06:36:51;99620.56;;;19.32;68.14
17260;BME280;8746;49.230;9.220;2023-06-10T06:39:17;99620.31;;;19.35;68.14
17260;BME280;8746;49.230;9.220;2023-06-10T06:41:42;99615.53;;;19.39;68.25
17260;BME280;8746;49.230;9.220;2023-06-10T06:44:07;99614.41;;;19.53;67.49
17260;BME280;8746;49.230;9.220;2023-06-10T06:46:32;99617.50;;;19.69;67.77
17260;BME280;8746;49.230;9.220;2023-06-10T06:48:58;99612.94;;;19.81;66.32
17260;BME280;8746;49.230;9.220;2023-06-10T06:51:23;99612.53;;;19.97;66.55
17260;BME280;8746;49.230;9.220;2023-06-10T06:53:48;99622.72;;;20.04;65.31
17260;BME280;8746;49.230;9.220;2023-06-10T06:56:16;99623.06;;;20.10;65.59
17260;BME280;8746;49.230;9.220;2023-06-10T06:58:41;99624.22;;;20.17;66.25
17260;BME280;8746;49.230;9.220;2023-06-10T07:01:06;99625.25;;;20.05;66.09
17260;BME280;8746;49.230;9.220;2023-06-10T07:03:32;99623.13;;;20.20;65.56
17260;BME280;8746;49.230;9.220;2023-06-10T07:05:57;99615.13;;;20.30;64.72
17260;BME280;8746;49.230;9.220;2023-06-10T07:08:22;99625.81;;;20.51;64.77
17260;BME280;8746;49.230;9.220;2023-06-10T07:10:48;99625.72;;;20.62;64.22
17260;BME280;8746;49.230;9.220;2023-06-10T07:13:14;99626.03;;;20.69;64.54
17260;BME280;8746;49.230;9.220;2023-06-10T07:15:39;99617.78;;;20.51;63.99
17260;BME280;8746;49.230;9.220;2023-06-10T07:18:04;99616.00;;;20.71;64.15
17260;BME280;8746;49.230;9.220;2023-06-10T07:20:30;99614.47;;;21.00;63.57
17260;BME280;8746;49.230;9.220;2023-06-10T07:22:59;99622.88;;;20.85;62.94
17260;BME280;8746;49.230;9.220;2023-06-10T07:25:25;99619.47;;;20.83;63.68
17260;BME280;8746;49.230;9.220;2023-06-10T07:27:50;99614.03;;;21.04;62.97
17260;BME280;8746;49.230;9.220;2023-06-10T07:30:15;99614.78;;;21.16;63.21
17260;BME280;8746;49.230;9.220;2023-06-10T07:32:41;99611.94;;;21.18;62.21
17260;BME280;8746;49.230;9.220;2023-06-10T07:35:08;99610.41;;;21.35;62.71
17260;BME280;8746;49.230;9.220;2023-06-10T07:37:35;99621.03;;;21.56;61.60
17260;BME280;8746;49.230;9.220;2023-06-10T07:40:01;99616.41;;;21.68;60.88
17260;BME280;8746;49.230;9.220;2023-06-10T07:42:26;99618.09;;;21.78;60.53
17260;BME280;8746;49.230;9.220;2023-06-10T07:44:52;99613.44;;;21.81;61.48
17260;BME280;8746;49.230;9.220;2023-06-10T07:47:17;99616.09;;;21.90;60.85
17260;BME280;8746;49.230;9.220;2023-06-10T07:49:43;99612.09;;;22.14;60.06
17260;BME280;8746;49.230;9.220;2023-06-10T07:52:08;99616.31;;;22.26;59.04
17260;BME280;8746;49.230;9.220;2023-06-10T07:54:33;99622.97;;;22.22;58.95
17260;BME280;8746;49.230;9.220;2023-06-10T07:56:59;99618.72;;;22.39;59.74
17260;BME280;8746;49.230;9.220;2023-06-10T07:59:24;99608.38;;;22.35;58.56
17260;BME280;8746;49.230;9.220;2023-06-10T08:01:51;99610.06;;;22.36;58.98
17260;BME280;8746;49.230;9.220;2023-06-10T08:04:16;99616.28;;;22.56;58.82
17260;BME280;8746;49.230;9.220;2023-06-10T08:06:42;99615.03;;;22.50;58.69
17260;BME280;8746;49.230;9.220;2023-06-10T08:09:07;99612.75;;;22.46;58.42
17260;BME280;8746;49.230;9.220;2023-06-10T08:11:32;99621.63;;;22.66;59.79
17260;BME280;8746;49.230;9.220;2023-06-10T08:13:58;99618.94;;;22.66;57.83
17260;BME280;8746;49.230;9.220;2023-06-10T08:16:23;99617.88;;;23.04;58.07
17260;BME280;8746;49.230;9.220;2023-06-10T08:18:48;99615.94;;;22.97;57.86
17260;BME280;8746;49.230;9.220;2023-06-10T08:21:15;99615.72;;;22.80;56.87
17260;BME280;8746;49.230;9.220;2023-06-10T08:23:40;99605.19;;;22.97;57.07
17260;BME280;8746;49.230;9.220;2023-06-10T08:26:06;99603.59;;;23.04;57.90
17260;BME280;8746;49.230;9.220;2023-06-10T08:28:31;99605.66;;;23.10;57.59
17260;BME280;8746;49.230;9.220;2023-06-10T08:30:56;99606.22;;;23.14;56.68
17260;BME280;8746;49.230;9.220;2023-06-10T08:33:22;99595.97;;;23.27;56.65
17260;BME280;8746;49.230;9.220;2023-06-10T08:35:47;99603.97;;;23.37;56.90
17260;BME280;8746;49.230;9.220;2023-06-10T08:38:13;99591.50;;;23.36;57.25
17260;BME280;8746;49.230;9.220;2023-06-10T08:40:38;99592.25;;;23.46;56.19
17260;BME280;8746;49.230;9.220;2023-06-10T08:43:08;99597.72;;;23.55;55.29
17260;BME280;8746;49.230;9.220;2023-06-10T08:45:37;99594.06;;;23.82;54.81
17260;BME280;8746;49.230;9.220;2023-06-10T08:48:05;99591.38;;;23.82;54.93
17260;BME280;8746;49.230;9.220;2023-06-10T08:50:37;99589.56;;;23.82;54.42
17260;BME280;8746;49.230;9.220;2023-06-10T08:53:05;99598.97;;;23.78;54.66
17260;BME280;8746;49.230;9.220;2023-06-10T08:55:37;99599.63;;;23.80;54.56
17260;BME280;8746;49.230;9.220;2023-06-10T08:58:03;99594.31;;;24.07;54.35
17260;BME280;8746;49.230;9.220;2023-06-10T09:00:30;99588.66;;;24.18;52.35
17260;BME280;8746;49.230;9.220;2023-06-10T09:02:57;99587.47;;;24.47;52.38
17260;BME280;8746;49.230;9.220;2023-06-10T09:05:23;99583.97;;;24.55;50.49
17260;BME280;8746;49.230;9.220;2023-06-10T09:07:49;99581.88;;;24.67;51.45
17260;BME280;8746;49.230;9.220;2023-06-10T09:10:16;99580.75;;;24.86;51.93
17260;BME280;8746;49.230;9.220;2023-06-10T09:12:41;99575.84;;;24.81;49.41
17260;BME280;8746;49.230;9.220;2023-06-10T09:15:07;99574.91;;;24.99;49.17
17260;BME280;8746;49.230;9.220;2023-06-10T09:17:33;99575.06;;;25.05;48.38
17260;BME280;8746;49.230;9.220;2023-06-10T09:20:01;99568.88;;;25.29;47.45
17260;BME280;8746;49.230;9.220;2023-06-10T09:22:27;99572.66;;;25.45;46.87
17260;BME280;8746;49.230;9.220;2023-06-10T09:25:05;99567.06;;;25.47;46.21
17260;BME280;8746;49.230;9.220;2023-06-10T09:27:32;99571.47;;;25.56;46.71
17260;BME280;8746;49.230;9.220;2023-06-10T09:29:58;99573.84;;;25.67;45.74
17260;BME280;8746;49.230;9.220;2023-06-10T09:32:24;99574.84;;;25.74;45.20
17260;BME280;8746;49.230;9.220;2023-06-10T09:34:50;99559.97;;;25.79;45.46
17260;BME280;8746;49.230;9.220;2023-06-10T09:37:25;99565.53;;;25.93;45.68
17260;BME280;8746;49.230;9.220;2023-06-10T09:40:04;99565.53;;;26.18;44.23
17260;BME280;8746;49.230;9.220;2023-06-10T09:42:34;99557.88;;;26.30;44.29
17260;BME280;8746;49.230;9.220;2023-06-10T09:45:03;99568.66;;;26.47;43.56
17260;BME280;8746;49.230;9.220;2023-06-10T09:47:29;99572.84;;;26.58;43.55
17260;BME280;8746;49.230;9.220;2023-06-10T09:49:55;99564.97;;;26.39;43.87
17260;BME280;8746;49.230;9.220;2023-06-10T09:52:27;99562.25;;;26.48;44.01
17260;BME280;8746;49.230;9.220;2023-06-10T09:54:59;99566.22;;;26.68;43.62
17260;BME280;8746;49.230;9.220;2023-06-10T09:57:25;99571.25;;;26.71;42.35
17260;BME280;8746;49.230;9.220;2023-06-10T09:59:53;99557.91;;;26.70;42.08
17260;BME280;8746;49.230;9.220;2023-06-10T10:02:19;99551.00;;;26.99;41.86
17260;BME280;8746;49.230;9.220;2023-06-10T10:04:45;99553.66;;;27.07;40.87
17260;BME280;8746;49.230;9.220;2023-06-10T10:07:11;99551.41;;;27.19;39.83
17260;BME280;8746;49.230;9.220;2023-06-10T10:09:41;99551.06;;;27.45;39.87
17260;BME280;8746;49.230;9.220;2023-06-10T10:12:10;99536.31;;;27.86;40.13
17260;BME280;8746;49.230;9.220;2023-06-10T10:14:42;99548.25;;;27.77;39.95
17260;BME280;8746;49.230;9.220;2023-06-10T10:17:11;99544.66;;;27.99;41.15
17260;BME280;8746;49.230;9.220;2023-06-10T10:19:44;99535.34;;;28.32;39.32
17260;BME280;8746;49.230;9.220;2023-06-10T10:22:17;99538.88;;;28.62;38.52
17260;BME280;8746;49.230;9.220;2023-06-10T10:24:50;99534.19;;;29.08;38.14
17260;BME280;8746;49.230;9.220;2023-06-10T10:27:31;99533.56;;;29.06;38.95
17260;BME280;8746;49.230;9.220;2023-06-10T10:29:58;99539.31;;;29.33;38.17
17260;BME280;8746;49.230;9.220;2023-06-10T10:32:33;99535.06;;;29.52;38.17
17260;BME280;8746;49.230;9.220;2023-06-10T10:35:07;99539.28;;;29.54;36.69
17260;BME280;8746;49.230;9.220;2023-06-10T10:37:33;99531.06;;;29.69;35.44
17260;BME280;8746;49.230;9.220;2023-06-10T10:39:59;99525.97;;;30.16;34.58
17260;BME280;8746;49.230;9.220;2023-06-10T10:42:26;99517.53;;;29.54;35.87
17260;BME280;8746;49.230;9.220;2023-06-10T10:44:52;99530.56;;;28.79;35.79
17260;BME280;8746;49.230;9.220;2023-06-10T10:47:21;99524.56;;;29.05;36.29
17260;BME280;8746;49.230;9.220;2023-06-10T10:49:48;99521.56;;;29.58;36.01
17260;BME280;8746;49.230;9.220;2023-06-10T10:52:15;99521.31;;;29.32;34.72
17260;BME280;8746;49.230;9.220;2023-06-10T10:54:44;99510.25;;;29.33;36.13
17260;BME280;8746;49.230;9.220;2023-06-10T10:59:45;99517.50;;;30.40;35.01
17260;BME280;8746;49.230;9.220;2023-06-10T11:02:16;99527.06;;;29.22;35.73
17260;BME280;8746;49.230;9.220;2023-06-10T11:04:48;99517.44;;;29.91;35.51
17260;BME280;8746;49.230;9.220;2023-06-10T11:07:14;99527.34;;;29.77;35.23
17260;BME280;8746;49.230;9.220;2023-06-10T11:10:02;99527.72;;;29.74;36.07
17260;BME280;8746;49.230;9.220;2023-06-10T11:12:50;99513.53;;;29.07;36.12
17260;BME280;8746;49.230;9.220;2023-06-10T11:15:29;99511.94;;;29.34;36.00
17260;BME280;8746;49.230;9.220;2023-06-10T11:31:44;99514.22;;;29.59;35.79
17260;BME280;8746;49.230;9.220;2023-06-10T11:34:10;99510.13;;;29.70;36.54
17260;BME280;8746;49.230;9.220;2023-06-10T11:36:41;99506.03;;;29.52;35.76
17260;BME280;8746;49.230;9.220;2023-06-10T11:39:08;99515.09;;;30.16;35.06
17260;BME280;8746;49.230;9.220;2023-06-10T11:41:35;99497.75;;;30.66;34.18
17260;BME280;8746;49.230;9.220;2023-06-10T11:44:03;99494.47;;;30.97;33.88
17260;BME280;8746;49.230;9.220;2023-06-10T11:46:29;99494.13;;;30.52;34.77
17260;BME280;8746;49.230;9.220;2023-06-10T11:48:56;99500.28;;;30.26;34.36
17260;BME280;8746;49.230;9.220;2023-06-10T11:51:26;99495.94;;;30.38;34.85
17260;BME280;8746;49.230;9.220;2023-06-10T11:53:52;99489.31;;;31.29;34.03
17260;BME280;8746;49.230;9.220;2023-06-10T11:56:22;99499.19;;;31.37;33.20
17260;BME280;8746;49.230;9.220;2023-06-10T11:59:02;99492.06;;;31.63;30.97
17260;BME280;8746;49.230;9.220;2023-06-10T12:01:31;99493.88;;;32.09;30.83
17260;BME280;8746;49.230;9.220;2023-06-10T12:04:07;99487.00;;;31.13;31.63
17260;BME280;8746;49.230;9.220;2023-06-10T12:06:50;99491.97;;;32.17;30.84
17260;BME280;8746;49.230;9.220;2023-06-10T12:09:18;99503.41;;;30.22;31.80
17260;BME280;8746;49.230;9.220;2023-06-10T12:11:43;99497.31;;;28.77;33.58
17260;BME280;8746;49.230;9.220;2023-06-10T12:14:09;99502.63;;;29.72;33.07
17260;BME280;8746;49.230;9.220;2023-06-10T12:16:35;99489.31;;;31.23;30.22
17260;BME280;8746;49.230;9.220;2023-06-10T12:19:04;99486.41;;;31.44;29.61
17260;BME280;8746;49.230;9.220;2023-06-10T12:21:32;99493.50;;;31.32;29.59
17260;BME280;8746;49.230;9.220;2023-06-10T12:24:06;99495.41;;;31.65;30.23
17260;BME280;8746;49.230;9.220;2023-06-10T12:26:43;99489.25;;;32.30;29.81
17260;BME280;8746;49.230;9.220;2023-06-10T12:29:15;99484.25;;;32.00;29.64
17260;BME280;8746;49.230;9.220;2023-06-10T12:32:02;99480.13;;;31.77;30.51
17260;BME280;8746;49.230;9.220;2023-06-10T12:36:57;99481.69;;;32.78;28.66
17260;BME280;8746;49.230;9.220;2023-06-10T12:39:22;99480.47;;;33.37;28.28
17260;BME280;8746;49.230;9.220;2023-06-10T12:41:48;99479.75;;;33.17;28.27
17260;BME280;8746;49.230;9.220;2023-06-10T12:44:15;99493.84;;;30.40;31.77
17260;BME280;8746;49.230;9.220;2023-06-10T12:46:40;99481.03;;;30.27;32.52
17260;BME280;8746;49.230;9.220;2023-06-10T12:49:05;99486.88;;;30.73;32.28
17260;BME280;8746;49.230;9.220;2023-06-10T12:51:31;99482.19;;;31.69;30.65
17260;BME280;8746;49.230;9.220;2023-06-10T12:54:02;99470.19;;;33.01;29.42
17260;BME280;8746;49.230;9.220;2023-06-10T12:56:27;99474.88;;;33.51;27.95
17260;BME280;8746;49.230;9.220;2023-06-10T12:58:53;99471.50;;;34.37;26.86
17260;BME280;8746;49.230;9.220;2023-06-10T13:01:18;99477.88;;;34.49;27.05
17260;BME280;8746;49.230;9.220;2023-06-10T13:03:43;99465.72;;;33.38;27.47
17260;BME280;8746;49.230;9.220;2023-06-10T13:06:09;99468.38;;;33.70;27.91
17260;BME280;8746;49.230;9.220;2023-06-10T13:08:34;99485.56;;;33.78;26.76
17260;BME280;8746;49.230;9.220;2023-06-10T13:10:59;99466.22;;;34.84;25.91
17260;BME280;8746;49.230;9.220;2023-06-10T13:13:25;99477.34;;;34.89;26.40
17260;BME280;8746;49.230;9.220;2023-06-10T13:15:51;99482.56;;;34.23;26.02
17260;BME280;8746;49.230;9.220;2023-06-10T13:18:17;99474.94;;;34.62;26.13
17260;BME280;8746;49.230;9.220;2023-06-10T13:20:44;99470.91;;;33.72;26.62
17260;BME280;8746;49.230;9.220;2023-06-10T13:23:09;99465.41;;;33.97;26.45
17260;BME280;8746;49.230;9.220;2023-06-10T13:25:34;99465.38;;;35.14;25.51
17260;BME280;8746;49.230;9.220;2023-06-10T13:28:00;99458.31;;;34.94;25.80